sensor_id;sensor_type;location;lat;lon;timestamp;P1;durP1;ratioP1;P2;durP2;ratioP2
74926;SDS011;63488;48.092;-1.640;2022-09-17T00:00:21;2.10;;;0.70;;
74926;SDS011;63488;48.092;-1.640;2022-09-17T00:02:50;3.33;;;0.82;;
74926;SDS011;63488;48.092;-1.640;2022-09-17T00:05:19;3.10;;;0.82;;
74926;SDS011;63488;48.092;-1.640;2022-09-17T00:07:45;2.63;;;0.80;;
74926;SDS011;63488;48.092;-1.640;2022-09-17T00:10:10;1.85;;;0.80;;
74926;SDS011;63488;48.092;-1.640;2022-09-17T00:12:35;1.63;;;0.65;;
74926;SDS011;63488;48.092;-1.640;2022-09-17T00:15:01;4.72;;;0.95;;
74926;SDS011;63488;48.092;-1.640;2022-09-17T00:17:26;5.93;;;0.80;;
74926;SDS011;63488;48.092;-1.640;2022-09-17T00:19:51;5.18;;;1.10;;
74926;SDS011;63488;48.092;-1.640;2022-09-17T00:22:17;2.30;;;1.05;;
74926;SDS011;63488;48.092;-1.640;2022-09-17T00:24:42;7.25;;;1.42;;
74926;SDS011;63488;48.092;-1.640;2022-09-17T00:27:07;4.53;;;1.25;;
74926;SDS011;63488;48.092;-1.640;2022-09-17T00:29:33;1.88;;;0.80;;
74926;SDS011;63488;48.092;-1.640;2022-09-17T00:31:58;1.65;;;0.80;;
74926;SDS011;63488;48.092;-1.640;2022-09-17T00:34:23;3.85;;;0.90;;
74926;SDS011;63488;48.092;-1.640;2022-09-17T00:36:49;5.03;;;0.80;;
74926;SDS011;63488;48.092;-1.640;2022-09-17T00:39:14;2.60;;;0.90;;
74926;SDS011;63488;48.092;-1.640;2022-09-17T00:41:40;3.67;;;0.82;;
74926;SDS011;63488;48.092;-1.640;2022-09-17T00:46:50;5.60;;;1.63;;
74926;SDS011;63488;48.092;-1.640;2022-09-17T00:49:25;2.00;;;0.98;;
74926;SDS011;63488;48.092;-1.640;2022-09-17T00:51:53;2.88;;;1.00;;
74926;SDS011;63488;48.092;-1.640;2022-09-17T00:54:21;4.70;;;0.90;;
74926;SDS011;63488;48.092;-1.640;2022-09-17T00:56:47;3.17;;;0.80;;
74926;SDS011;63488;48.092;-1.640;2022-09-17T00:59:13;1.88;;;0.85;;
74926;SDS011;63488;48.092;-1.640;2022-09-17T01:01:39;4.45;;;0.80;;
74926;SDS011;63488;48.092;-1.640;2022-09-17T01:04:04;4.40;;;0.93;;
74926;SDS011;63488;48.092;-1.640;2022-09-17T01:08:58;4.10;;;1.13;;
74926;SDS011;63488;48.092;-1.640;2022-09-17T01:11:30;2.35;;;1.02;;
74926;SDS011;63488;48.092;-1.640;2022-09-17T01:21:54;1.63;;;0.60;;
74926;SDS011;63488;48.092;-1.640;2022-09-17T01:38:26;3.72;;;0.63;;
74926;SDS011;63488;48.092;-1.640;2022-09-17T01:40:55;3.30;;;0.70;;
74926;SDS011;63488;48.092;-1.640;2022-09-17T01:45:51;4.35;;;0.90;;
74926;SDS011;63488;48.092;-1.640;2022-09-17T01:48:17;5.80;;;0.60;;
74926;SDS011;63488;48.092;-1.640;2022-09-17T01:51:26;3.13;;;0.60;;
74926;SDS011;63488;48.092;-1.640;2022-09-17T01:53:49;2.70;;;0.60;;
74926;SDS011;63488;48.092;-1.640;2022-09-17T01:56:20;4.82;;;0.63;;
74926;SDS011;63488;48.092;-1.640;2022-09-17T02:01:37;3.88;;;0.60;;
74926;SDS011;63488;48.092;-1.640;2022-09-17T02:04:07;1.63;;;0.57;;
74926;SDS011;63488;48.092;-1.640;2022-09-17T02:06:37;2.17;;;0.73;;
74926;SDS011;63488;48.092;-1.640;2022-09-17T02:09:15;1.40;;;0.50;;
74926;SDS011;63488;48.092;-1.640;2022-09-17T02:11:42;1.90;;;0.60;;
74926;SDS011;63488;48.092;-1.640;2022-09-17T02:14:09;2.33;;;0.80;;
74926;SDS011;63488;48.092;-1.640;2022-09-17T02:16:38;2.28;;;0.82;;
74926;SDS011;63488;48.092;-1.640;2022-09-17T02:19:17;3.60;;;0.68;;
74926;SDS011;63488;48.092;-1.640;2022-09-17T02:21:46;2.20;;;0.60;;
74926;SDS011;63488;48.092;-1.640;2022-09-17T02:24:15;2.05;;;0.52;;
74926;SDS011;63488;48.092;-1.640;2022-09-17T02:26:45;5.50;;;0.60;;
74926;SDS011;63488;48.092;-1.640;2022-09-17T02:29:14;3.38;;;0.73;;
74926;SDS011;63488;48.092;-1.640;2022-09-17T02:31:43;5.10;;;0.85;;
74926;SDS011;63488;48.092;-1.640;2022-09-17T02:34:08;3.03;;;0.70;;
74926;SDS011;63488;48.092;-1.640;2022-09-17T02:36:34;2.13;;;0.70;;
74926;SDS011;63488;48.092;-1.640;2022-09-17T02:39:00;3.65;;;0.90;;
74926;SDS011;63488;48.092;-1.640;2022-09-17T02:41:30;3.70;;;0.80;;
74926;SDS011;63488;48.092;-1.640;2022-09-17T02:44:01;2.28;;;0.50;;
74926;SDS011;63488;48.092;-1.640;2022-09-17T02:49:09;2.70;;;0.70;;
74926;SDS011;63488;48.092;-1.640;2022-09-17T02:56:42;2.03;;;0.60;;
74926;SDS011;63488;48.092;-1.640;2022-09-17T03:01:46;3.30;;;0.70;;
74926;SDS011;63488;48.092;-1.640;2022-09-17T03:04:14;2.63;;;0.60;;
74926;SDS011;63488;48.092;-1.640;2022-09-17T03:06:44;3.63;;;0.60;;
74926;SDS011;63488;48.092;-1.640;2022-09-17T03:11:36;3.60;;;0.83;;
74926;SDS011;63488;48.092;-1.640;2022-09-17T03:14:01;3.20;;;0.77;;
74926;SDS011;63488;48.092;-1.640;2022-09-17T03:16:26;2.10;;;0.60;;
74926;SDS011;63488;48.092;-1.640;2022-09-17T03:18:52;1.83;;;0.68;;
74926;SDS011;63488;48.092;-1.640;2022-09-17T03:21:17;1.50;;;0.75;;
74926;SDS011;63488;48.092;-1.640;2022-09-17T03:23:42;1.77;;;0.77;;
74926;SDS011;63488;48.092;-1.640;2022-09-17T03:26:08;2.45;;;0.70;;
74926;SDS011;63488;48.092;-1.640;2022-09-17T03:28:33;2.60;;;0.73;;
74926;SDS011;63488;48.092;-1.640;2022-09-17T03:30:59;1.70;;;0.90;;
74926;SDS011;63488;48.092;-1.640;2022-09-17T03:33:24;1.92;;;0.68;;
74926;SDS011;63488;48.092;-1.640;2022-09-17T03:35:49;1.67;;;0.90;;
74926;SDS011;63488;48.092;-1.640;2022-09-17T03:38:15;2.15;;;0.90;;
74926;SDS011;63488;48.092;-1.640;2022-09-17T03:40:40;3.95;;;0.77;;
74926;SDS011;63488;48.092;-1.640;2022-09-17T03:43:06;3.03;;;1.00;;
74926;SDS011;63488;48.092;-1.640;2022-09-17T03:45:31;3.30;;;0.82;;
74926;SDS011;63488;48.092;-1.640;2022-09-17T03:47:57;2.67;;;0.80;;
74926;SDS011;63488;48.092;-1.640;2022-09-17T03:50:22;3.15;;;0.77;;
74926;SDS011;63488;48.092;-1.640;2022-09-17T03:52:48;2.47;;;0.90;;
74926;SDS011;63488;48.092;-1.640;2022-09-17T03:55:13;1.45;;;0.70;;
74926;SDS011;63488;48.092;-1.640;2022-09-17T03:57:40;3.42;;;0.77;;
74926;SDS011;63488;48.092;-1.640;2022-09-17T04:00:05;1.90;;;0.98;;
74926;SDS011;63488;48.092;-1.640;2022-09-17T04:02:31;2.10;;;0.70;;
74926;SDS011;63488;48.092;-1.640;2022-09-17T04:04:56;1.95;;;0.80;;
74926;SDS011;63488;48.092;-1.640;2022-09-17T04:07:22;3.50;;;0.95;;
74926;SDS011;63488;48.092;-1.640;2022-09-17T04:09:47;4.72;;;0.90;;
74926;SDS011;63488;48.092;-1.640;2022-09-17T04:12:12;1.08;;;0.77;;
74926;SDS011;63488;48.092;-1.640;2022-09-17T04:14:38;3.10;;;0.73;;
74926;SDS011;63488;48.092;-1.640;2022-09-17T04:17:03;2.78;;;0.88;;
74926;SDS011;63488;48.092;-1.640;2022-09-17T04:19:28;1.60;;;0.68;;
74926;SDS011;63488;48.092;-1.640;2022-09-17T04:21:54;3.35;;;0.80;;
74926;SDS011;63488;48.092;-1.640;2022-09-17T04:24:19;2.88;;;0.70;;
74926;SDS011;63488;48.092;-1.640;2022-09-17T04:26:44;3.67;;;0.82;;
74926;SDS011;63488;48.092;-1.640;2022-09-17T04:29:10;1.88;;;0.60;;
74926;SDS011;63488;48.092;-1.640;2022-09-17T04:31:35;1.35;;;0.70;;
74926;SDS011;63488;48.092;-1.640;2022-09-17T04:34:01;1.90;;;0.80;;
74926;SDS011;63488;48.092;-1.640;2022-09-17T04:36:26;2.15;;;0.88;;
74926;SDS011;63488;48.092;-1.640;2022-09-17T04:38:51;2.90;;;0.65;;
74926;SDS011;63488;48.092;-1.640;2022-09-17T04:41:17;2.08;;;0.70;;
74926;SDS011;63488;48.092;-1.640;2022-09-17T04:43:42;2.13;;;0.60;;
74926;SDS011;63488;48.092;-1.640;2022-09-17T04:46:08;2.53;;;0.80;;
74926;SDS011;63488;48.092;-1.640;2022-09-17T04:48:33;1.35;;;0.60;;
74926;SDS011;63488;48.092;-1.640;2022-09-17T04:50:59;3.70;;;0.90;;
74926;SDS011;63488;48.092;-1.640;2022-09-17T04:53:24;2.38;;;0.65;;
74926;SDS011;63488;48.092;-1.640;2022-09-17T04:55:49;1.33;;;0.82;;
74926;SDS011;63488;48.092;-1.640;2022-09-17T04:58:15;1.58;;;0.82;;
74926;SDS011;63488;48.092;-1.640;2022-09-17T05:00:40;2.65;;;0.80;;
74926;SDS011;63488;48.092;-1.640;2022-09-17T05:03:06;2.22;;;1.30;;
74926;SDS011;63488;48.092;-1.640;2022-09-17T05:05:31;1.13;;;0.70;;
74926;SDS011;63488;48.092;-1.640;2022-09-17T05:07:57;2.20;;;0.80;;
74926;SDS011;63488;48.092;-1.640;2022-09-17T05:10:22;2.08;;;0.63;;
74926;SDS011;63488;48.092;-1.640;2022-09-17T05:12:51;2.13;;;0.63;;
74926;SDS011;63488;48.092;-1.640;2022-09-17T05:15:17;2.13;;;0.75;;
74926;SDS011;63488;48.092;-1.640;2022-09-17T05:17:42;3.85;;;0.80;;
74926;SDS011;63488;48.092;-1.640;2022-09-17T05:20:08;1.00;;;0.60;;
74926;SDS011;63488;48.092;-1.640;2022-09-17T05:22:33;3.28;;;0.60;;
74926;SDS011;63488;48.092;-1.640;2022-09-17T05:24:59;1.58;;;0.77;;
74926;SDS011;63488;48.092;-1.640;2022-09-17T05:27:24;3.70;;;0.80;;
74926;SDS011;63488;48.092;-1.640;2022-09-17T05:29:49;0.70;;;0.60;;
74926;SDS011;63488;48.092;-1.640;2022-09-17T05:32:15;1.40;;;0.75;;
74926;SDS011;63488;48.092;-1.640;2022-09-17T05:34:40;1.90;;;0.80;;
74926;SDS011;63488;48.092;-1.640;2022-09-17T05:37:08;2.90;;;0.70;;
74926;SDS011;63488;48.092;-1.640;2022-09-17T05:39:33;3.40;;;0.90;;
74926;SDS011;63488;48.092;-1.640;2022-09-17T05:41:58;2.60;;;0.68;;
74926;SDS011;63488;48.092;-1.640;2022-09-17T05:44:24;1.17;;;0.68;;
74926;SDS011;63488;48.092;-1.640;2022-09-17T05:46:51;2.25;;;0.73;;
74926;SDS011;63488;48.092;-1.640;2022-09-17T05:49:16;1.88;;;0.90;;
74926;SDS011;63488;48.092;-1.640;2022-09-17T05:51:42;1.77;;;0.70;;
74926;SDS011;63488;48.092;-1.640;2022-09-17T05:54:07;4.22;;;1.52;;
74926;SDS011;63488;48.092;-1.640;2022-09-17T05:56:33;2.38;;;0.93;;
74926;SDS011;63488;48.092;-1.640;2022-09-17T05:58:59;3.15;;;1.17;;
74926;SDS011;63488;48.092;-1.640;2022-09-17T06:01:24;4.43;;;0.70;;
74926;SDS011;63488;48.092;-1.640;2022-09-17T06:03:49;5.20;;;0.98;;
74926;SDS011;63488;48.092;-1.640;2022-09-17T06:06:15;2.75;;;1.00;;
74926;SDS011;63488;48.092;-1.640;2022-09-17T06:08:40;2.03;;;0.70;;
74926;SDS011;63488;48.092;-1.640;2022-09-17T06:11:06;4.47;;;1.05;;
74926;SDS011;63488;48.092;-1.640;2022-09-17T06:13:32;2.15;;;0.90;;
74926;SDS011;63488;48.092;-1.640;2022-09-17T06:15:57;4.32;;;1.00;;
74926;SDS011;63488;48.092;-1.640;2022-09-17T06:18:23;2.85;;;0.98;;
74926;SDS011;63488;48.092;-1.640;2022-09-17T06:20:55;2.97;;;0.70;;
74926;SDS011;63488;48.092;-1.640;2022-09-17T06:23:21;2.28;;;0.90;;
74926;SDS011;63488;48.092;-1.640;2022-09-17T06:25:57;2.45;;;0.80;;
74926;SDS011;63488;48.092;-1.640;2022-09-17T06:28:22;3.28;;;0.93;;
74926;SDS011;63488;48.092;-1.640;2022-09-17T06:30:48;1.30;;;0.95;;
74926;SDS011;63488;48.092;-1.640;2022-09-17T06:33:13;2.58;;;0.80;;
74926;SDS011;63488;48.092;-1.640;2022-09-17T06:35:39;2.25;;;0.90;;
74926;SDS011;63488;48.092;-1.640;2022-09-17T06:38:05;3.08;;;0.93;;
74926;SDS011;63488;48.092;-1.640;2022-09-17T06:40:30;1.48;;;0.73;;
74926;SDS011;63488;48.092;-1.640;2022-09-17T06:42:56;1.00;;;0.70;;
74926;SDS011;63488;48.092;-1.640;2022-09-17T06:45:23;3.13;;;0.88;;
74926;SDS011;63488;48.092;-1.640;2022-09-17T06:47:48;1.58;;;0.80;;
74926;SDS011;63488;48.092;-1.640;2022-09-17T06:50:14;1.75;;;1.33;;
74926;SDS011;63488;48.092;-1.640;2022-09-17T06:52:46;1.88;;;0.90;;
74926;SDS011;63488;48.092;-1.640;2022-09-17T06:55:11;3.47;;;0.82;;
74926;SDS011;63488;48.092;-1.640;2022-09-17T06:57:36;1.75;;;1.15;;
74926;SDS011;63488;48.092;-1.640;2022-09-17T07:00:02;3.97;;;0.80;;
74926;SDS011;63488;48.092;-1.640;2022-09-17T07:02:28;4.22;;;1.00;;
74926;SDS011;63488;48.092;-1.640;2022-09-17T07:04:53;3.97;;;0.93;;
74926;SDS011;63488;48.092;-1.640;2022-09-17T07:07:19;1.90;;;0.90;;
74926;SDS011;63488;48.092;-1.640;2022-09-17T07:09:44;3.08;;;1.08;;
74926;SDS011;63488;48.092;-1.640;2022-09-17T07:12:10;4.00;;;0.90;;
74926;SDS011;63488;48.092;-1.640;2022-09-17T07:14:35;2.25;;;0.90;;
74926;SDS011;63488;48.092;-1.640;2022-09-17T07:17:00;5.07;;;1.35;;
74926;SDS011;63488;48.092;-1.640;2022-09-17T07:19:26;2.22;;;0.80;;
74926;SDS011;63488;48.092;-1.640;2022-09-17T07:21:51;2.63;;;0.80;;
74926;SDS011;63488;48.092;-1.640;2022-09-17T07:24:17;1.38;;;0.80;;
74926;SDS011;63488;48.092;-1.640;2022-09-17T07:26:42;4.00;;;0.90;;
74926;SDS011;63488;48.092;-1.640;2022-09-17T07:29:07;2.25;;;0.80;;
74926;SDS011;63488;48.092;-1.640;2022-09-17T07:31:33;1.65;;;0.77;;
74926;SDS011;63488;48.092;-1.640;2022-09-17T07:33:58;2.75;;;0.90;;
74926;SDS011;63488;48.092;-1.640;2022-09-17T07:36:25;3.00;;;0.77;;
74926;SDS011;63488;48.092;-1.640;2022-09-17T07:38:50;2.75;;;0.82;;
74926;SDS011;63488;48.092;-1.640;2022-09-17T07:41:16;2.47;;;0.80;;
74926;SDS011;63488;48.092;-1.640;2022-09-17T07:43:42;2.50;;;0.80;;
74926;SDS011;63488;48.092;-1.640;2022-09-17T07:46:12;2.78;;;0.73;;
74926;SDS011;63488;48.092;-1.640;2022-09-17T07:48:37;1.63;;;0.70;;
74926;SDS011;63488;48.092;-1.640;2022-09-17T07:51:03;1.25;;;0.50;;
74926;SDS011;63488;48.092;-1.640;2022-09-17T07:53:28;2.58;;;0.57;;
74926;SDS011;63488;48.092;-1.640;2022-09-17T07:55:57;2.55;;;0.60;;
74926;SDS011;63488;48.092;-1.640;2022-09-17T07:58:27;1.80;;;0.60;;
74926;SDS011;63488;48.092;-1.640;2022-09-17T08:00:52;1.67;;;0.70;;
74926;SDS011;63488;48.092;-1.640;2022-09-17T08:03:18;2.47;;;0.70;;
74926;SDS011;63488;48.092;-1.640;2022-09-17T08:05:43;1.80;;;0.40;;
74926;SDS011;63488;48.092;-1.640;2022-09-17T08:08:08;2.88;;;0.50;;
74926;SDS011;63488;48.092;-1.640;2022-09-17T08:10:33;2.97;;;0.70;;
74926;SDS011;63488;48.092;-1.640;2022-09-17T08:13:00;3.55;;;0.70;;
74926;SDS011;63488;48.092;-1.640;2022-09-17T08:15:25;1.10;;;0.50;;
74926;SDS011;63488;48.092;-1.640;2022-09-17T08:17:51;2.20;;;0.50;;
74926;SDS011;63488;48.092;-1.640;2022-09-17T08:20:17;1.13;;;0.40;;
74926;SDS011;63488;48.092;-1.640;2022-09-17T08:22:43;1.63;;;0.57;;
74926;SDS011;63488;48.092;-1.640;2022-09-17T08:25:08;2.22;;;0.50;;
74926;SDS011;63488;48.092;-1.640;2022-09-17T08:27:34;2.03;;;0.40;;
74926;SDS011;63488;48.092;-1.640;2022-09-17T08:29:59;4.40;;;0.70;;
74926;SDS011;63488;48.092;-1.640;2022-09-17T08:32:27;4.03;;;0.70;;
74926;SDS011;63488;48.092;-1.640;2022-09-17T08:34:53;4.32;;;0.50;;
74926;SDS011;63488;48.092;-1.640;2022-09-17T08:37:19;2.33;;;0.60;;
74926;SDS011;63488;48.092;-1.640;2022-09-17T08:39:44;1.17;;;0.35;;
74926;SDS011;63488;48.092;-1.640;2022-09-17T08:42:19;1.05;;;0.30;;
74926;SDS011;63488;48.092;-1.640;2022-09-17T08:44:46;3.05;;;0.40;;
74926;SDS011;63488;48.092;-1.640;2022-09-17T08:47:18;2.55;;;0.32;;
74926;SDS011;63488;48.092;-1.640;2022-09-17T08:54:49;2.00;;;0.85;;
74926;SDS011;63488;48.092;-1.640;2022-09-17T08:59:48;2.92;;;0.40;;
74926;SDS011;63488;48.092;-1.640;2022-09-17T09:02:36;2.88;;;0.43;;
74926;SDS011;63488;48.092;-1.640;2022-09-17T09:05:11;1.27;;;0.30;;
74926;SDS011;63488;48.092;-1.640;2022-09-17T09:07:43;2.03;;;0.57;;
74926;SDS011;63488;48.092;-1.640;2022-09-17T09:12:41;0.63;;;0.35;;
74926;SDS011;63488;48.092;-1.640;2022-09-17T09:15:18;1.58;;;0.30;;
74926;SDS011;63488;48.092;-1.640;2022-09-17T09:17:46;4.63;;;0.45;;
74926;SDS011;63488;48.092;-1.640;2022-09-17T09:20:23;1.73;;;0.32;;
74926;SDS011;63488;48.092;-1.640;2022-09-17T09:22:54;0.52;;;0.17;;
74926;SDS011;63488;48.092;-1.640;2022-09-17T09:30:16;4.50;;;0.43;;
74926;SDS011;63488;48.092;-1.640;2022-09-17T09:35:22;3.70;;;0.40;;
74926;SDS011;63488;48.092;-1.640;2022-09-17T09:38:02;4.70;;;0.30;;
74926;SDS011;63488;48.092;-1.640;2022-09-17T09:41:12;1.63;;;0.43;;
74926;SDS011;63488;48.092;-1.640;2022-09-17T09:43:21;2.10;;;0.35;;
74926;SDS011;63488;48.092;-1.640;2022-09-17T09:50:46;3.42;;;0.50;;
74926;SDS011;63488;48.092;-1.640;2022-09-17T09:53:18;2.17;;;0.30;;
74926;SDS011;63488;48.092;-1.640;2022-09-17T09:58:36;2.88;;;0.52;;
74926;SDS011;63488;48.092;-1.640;2022-09-17T10:01:03;2.08;;;0.47;;
74926;SDS011;63488;48.092;-1.640;2022-09-17T10:03:29;1.67;;;0.45;;
74926;SDS011;63488;48.092;-1.640;2022-09-17T10:08:28;0.88;;;0.50;;
74926;SDS011;63488;48.092;-1.640;2022-09-17T10:10:55;1.15;;;0.70;;
74926;SDS011;63488;48.092;-1.640;2022-09-17T10:13:20;1.85;;;0.65;;
74926;SDS011;63488;48.092;-1.640;2022-09-17T10:15:46;3.60;;;0.40;;
74926;SDS011;63488;48.092;-1.640;2022-09-17T10:18:18;0.70;;;0.32;;
74926;SDS011;63488;48.092;-1.640;2022-09-17T10:23:22;4.28;;;0.70;;
74926;SDS011;63488;48.092;-1.640;2022-09-17T10:25:47;3.13;;;0.50;;
74926;SDS011;63488;48.092;-1.640;2022-09-17T10:28:22;2.97;;;0.40;;
74926;SDS011;63488;48.092;-1.640;2022-09-17T10:31:21;3.15;;;0.65;;
74926;SDS011;63488;48.092;-1.640;2022-09-17T10:36:33;2.45;;;0.40;;
74926;SDS011;63488;48.092;-1.640;2022-09-17T10:39:00;2.97;;;0.30;;
74926;SDS011;63488;48.092;-1.640;2022-09-17T10:41:52;1.95;;;0.30;;
74926;SDS011;63488;48.092;-1.640;2022-09-17T10:44:19;0.85;;;0.40;;
74926;SDS011;63488;48.092;-1.640;2022-09-17T10:46:45;2.35;;;0.40;;
74926;SDS011;63488;48.092;-1.640;2022-09-17T10:49:13;1.77;;;0.63;;
74926;SDS011;63488;48.092;-1.640;2022-09-17T10:51:42;0.95;;;0.45;;
74926;SDS011;63488;48.092;-1.640;2022-09-17T10:56:36;1.45;;;0.30;;
74926;SDS011;63488;48.092;-1.640;2022-09-17T11:11:48;2.22;;;0.47;;
74926;SDS011;63488;48.092;-1.640;2022-09-17T11:14:39;1.27;;;0.30;;
74926;SDS011;63488;48.092;-1.640;2022-09-17T11:24:34;2.67;;;1.40;;
74926;SDS011;63488;48.092;-1.640;2022-09-17T11:27:28;3.20;;;0.30;;
74926;SDS011;63488;48.092;-1.640;2022-09-17T11:37:37;0.93;;;0.40;;
74926;SDS011;63488;48.092;-1.640;2022-09-17T11:40:20;0.73;;;0.30;;
74926;SDS011;63488;48.092;-1.640;2022-09-17T11:42:55;4.15;;;0.50;;
74926;SDS011;63488;48.092;-1.640;2022-09-17T11:45:24;4.07;;;0.75;;
74926;SDS011;63488;48.092;-1.640;2022-09-17T11:52:59;2.65;;;0.70;;
74926;SDS011;63488;48.092;-1.640;2022-09-17T11:55:32;5.15;;;0.50;;
74926;SDS011;63488;48.092;-1.640;2022-09-17T11:58:02;1.35;;;0.50;;
74926;SDS011;63488;48.092;-1.640;2022-09-17T12:00:40;2.88;;;0.47;;
74926;SDS011;63488;48.092;-1.640;2022-09-17T12:03:18;2.33;;;0.47;;
74926;SDS011;63488;48.092;-1.640;2022-09-17T12:05:53;1.77;;;0.63;;
74926;SDS011;63488;48.092;-1.640;2022-09-17T12:08:33;1.67;;;0.47;;
74926;SDS011;63488;48.092;-1.640;2022-09-17T12:11:07;2.15;;;0.80;;
74926;SDS011;63488;48.092;-1.640;2022-09-17T12:13:44;1.88;;;0.45;;
74926;SDS011;63488;48.092;-1.640;2022-09-17T12:16:19;3.00;;;0.65;;
74926;SDS011;63488;48.092;-1.640;2022-09-17T12:21:10;1.77;;;0.50;;
74926;SDS011;63488;48.092;-1.640;2022-09-17T12:23:46;1.08;;;0.25;;
74926;SDS011;63488;48.092;-1.640;2022-09-17T12:26:22;2.47;;;0.47;;
74926;SDS011;63488;48.092;-1.640;2022-09-17T12:28:56;2.30;;;0.60;;
74926;SDS011;63488;48.092;-1.640;2022-09-17T12:31:37;1.20;;;0.43;;
74926;SDS011;63488;48.092;-1.640;2022-09-17T12:39:32;4.00;;;0.40;;
74926;SDS011;63488;48.092;-1.640;2022-09-17T13:00:28;2.35;;;0.40;;
74926;SDS011;63488;48.092;-1.640;2022-09-17T13:03:03;2.55;;;0.50;;
74926;SDS011;63488;48.092;-1.640;2022-09-17T13:18:37;2.58;;;0.55;;
74926;SDS011;63488;48.092;-1.640;2022-09-17T13:21:09;1.38;;;0.40;;
74926;SDS011;63488;48.092;-1.640;2022-09-17T13:23:38;0.85;;;0.40;;
74926;SDS011;63488;48.092;-1.640;2022-09-17T13:26:05;1.85;;;0.40;;
74926;SDS011;63488;48.092;-1.640;2022-09-17T13:28:43;2.90;;;0.43;;
74926;SDS011;63488;48.092;-1.640;2022-09-17T13:31:09;1.13;;;0.40;;
74926;SDS011;63488;48.092;-1.640;2022-09-17T13:36:35;3.30;;;0.35;;
74926;SDS011;63488;48.092;-1.640;2022-09-17T13:39:02;1.85;;;0.40;;
74926;SDS011;63488;48.092;-1.640;2022-09-17T13:41:28;0.65;;;0.55;;
74926;SDS011;63488;48.092;-1.640;2022-09-17T13:43:54;1.00;;;0.40;;
74926;SDS011;63488;48.092;-1.640;2022-09-17T13:46:21;0.93;;;0.40;;
74926;SDS011;63488;48.092;-1.640;2022-09-17T13:48:48;2.33;;;0.40;;
74926;SDS011;63488;48.092;-1.640;2022-09-17T13:53:53;3.13;;;0.38;;
74926;SDS011;63488;48.092;-1.640;2022-09-17T14:07:17;0.68;;;0.35;;
74926;SDS011;63488;48.092;-1.640;2022-09-17T14:15:03;0.57;;;0.20;;
74926;SDS011;63488;48.092;-1.640;2022-09-17T14:17:48;0.73;;;0.30;;
74926;SDS011;63488;48.092;-1.640;2022-09-17T14:20:16;2.72;;;0.25;;
74926;SDS011;63488;48.092;-1.640;2022-09-17T14:22:42;1.02;;;0.30;;
74926;SDS011;63488;48.092;-1.640;2022-09-17T14:25:14;0.47;;;0.30;;
74926;SDS011;63488;48.092;-1.640;2022-09-17T14:30:37;2.30;;;0.40;;
74926;SDS011;63488;48.092;-1.640;2022-09-17T14:33:04;2.58;;;0.20;;
74926;SDS011;63488;48.092;-1.640;2022-09-17T14:35:44;1.73;;;0.20;;
74926;SDS011;63488;48.092;-1.640;2022-09-17T14:46:11;0.57;;;0.30;;
74926;SDS011;63488;48.092;-1.640;2022-09-17T14:48:38;1.02;;;0.30;;
74926;SDS011;63488;48.092;-1.640;2022-09-17T14:51:37;0.93;;;0.20;;
74926;SDS011;63488;48.092;-1.640;2022-09-17T14:54:06;1.80;;;0.40;;
74926;SDS011;63488;48.092;-1.640;2022-09-17T14:56:34;1.95;;;0.32;;
74926;SDS011;63488;48.092;-1.640;2022-09-17T14:59:00;0.30;;;0.20;;
74926;SDS011;63488;48.092;-1.640;2022-09-17T15:01:27;1.63;;;0.22;;
74926;SDS011;63488;48.092;-1.640;2022-09-17T15:06:36;0.60;;;0.28;;
74926;SDS011;63488;48.092;-1.640;2022-09-17T15:09:01;1.17;;;0.10;;
74926;SDS011;63488;48.092;-1.640;2022-09-17T15:11:27;2.88;;;0.60;;
74926;SDS011;63488;48.092;-1.640;2022-09-17T15:13:52;1.10;;;0.30;;
74926;SDS011;63488;48.092;-1.640;2022-09-17T15:16:19;1.60;;;0.32;;
74926;SDS011;63488;48.092;-1.640;2022-09-17T15:18:47;1.83;;;0.30;;
74926;SDS011;63488;48.092;-1.640;2022-09-17T15:21:24;2.67;;;0.20;;
74926;SDS011;63488;48.092;-1.640;2022-09-17T15:23:52;1.98;;;0.38;;
74926;SDS011;63488;48.092;-1.640;2022-09-17T15:26:21;2.45;;;0.40;;
74926;SDS011;63488;48.092;-1.640;2022-09-17T15:28:48;1.67;;;0.32;;
74926;SDS011;63488;48.092;-1.640;2022-09-17T15:31:16;1.65;;;0.45;;
74926;SDS011;63488;48.092;-1.640;2022-09-17T15:33:42;1.38;;;0.40;;
74926;SDS011;63488;48.092;-1.640;2022-09-17T15:36:21;1.33;;;0.30;;
74926;SDS011;63488;48.092;-1.640;2022-09-17T15:38:47;0.73;;;0.17;;
74926;SDS011;63488;48.092;-1.640;2022-09-17T15:41:26;1.58;;;0.28;;
74926;SDS011;63488;48.092;-1.640;2022-09-17T15:43:52;5.10;;;1.30;;
74926;SDS011;63488;48.092;-1.640;2022-09-17T15:46:27;0.73;;;0.30;;
74926;SDS011;63488;48.092;-1.640;2022-09-17T15:48:59;1.50;;;0.20;;
74926;SDS011;63488;48.092;-1.640;2022-09-17T15:51:26;1.45;;;0.30;;
74926;SDS011;63488;48.092;-1.640;2022-09-17T15:54:01;0.57;;;0.40;;
74926;SDS011;63488;48.092;-1.640;2022-09-17T15:56:32;0.82;;;0.15;;
74926;SDS011;63488;48.092;-1.640;2022-09-17T15:59:02;1.23;;;0.20;;
74926;SDS011;63488;48.092;-1.640;2022-09-17T16:08:50;0.35;;;0.30;;
74926;SDS011;63488;48.092;-1.640;2022-09-17T16:11:16;0.95;;;0.30;;
74926;SDS011;63488;48.092;-1.640;2022-09-17T16:13:44;1.58;;;0.30;;
74926;SDS011;63488;48.092;-1.640;2022-09-17T16:16:13;0.45;;;0.20;;
74926;SDS011;63488;48.092;-1.640;2022-09-17T16:18:39;1.50;;;0.30;;
74926;SDS011;63488;48.092;-1.640;2022-09-17T16:21:05;2.05;;;0.20;;
74926;SDS011;63488;48.092;-1.640;2022-09-17T16:23:30;1.20;;;0.30;;
74926;SDS011;63488;48.092;-1.640;2022-09-17T16:25:55;1.08;;;0.20;;
74926;SDS011;63488;48.092;-1.640;2022-09-17T16:28:21;1.98;;;0.30;;
74926;SDS011;63488;48.092;-1.640;2022-09-17T16:30:46;1.20;;;0.30;;
74926;SDS011;63488;48.092;-1.640;2022-09-17T16:33:13;3.25;;;0.40;;
74926;SDS011;63488;48.092;-1.640;2022-09-17T16:35:39;1.65;;;0.15;;
74926;SDS011;63488;48.092;-1.640;2022-09-17T16:38:05;1.33;;;0.30;;
74926;SDS011;63488;48.092;-1.640;2022-09-17T16:40:30;1.65;;;0.20;;
74926;SDS011;63488;48.092;-1.640;2022-09-17T16:42:58;2.28;;;0.50;;
74926;SDS011;63488;48.092;-1.640;2022-09-17T16:45:24;0.38;;;0.20;;
74926;SDS011;63488;48.092;-1.640;2022-09-17T16:47:49;1.35;;;0.20;;
74926;SDS011;63488;48.092;-1.640;2022-09-17T16:50:15;1.02;;;0.30;;
74926;SDS011;63488;48.092;-1.640;2022-09-17T16:52:40;1.52;;;0.40;;
74926;SDS011;63488;48.092;-1.640;2022-09-17T16:55:06;1.25;;;0.20;;
74926;SDS011;63488;48.092;-1.640;2022-09-17T16:57:32;0.98;;;0.30;;
74926;SDS011;63488;48.092;-1.640;2022-09-17T16:59:58;1.38;;;0.30;;
74926;SDS011;63488;48.092;-1.640;2022-09-17T17:02:24;0.93;;;0.38;;
74926;SDS011;63488;48.092;-1.640;2022-09-17T17:04:49;1.40;;;0.20;;
74926;SDS011;63488;48.092;-1.640;2022-09-17T17:07:14;1.20;;;0.22;;
74926;SDS011;63488;48.092;-1.640;2022-09-17T17:09:40;1.27;;;0.30;;
74926;SDS011;63488;48.092;-1.640;2022-09-17T17:12:05;0.85;;;0.20;;
74926;SDS011;63488;48.092;-1.640;2022-09-17T17:14:31;2.17;;;0.57;;
74926;SDS011;63488;48.092;-1.640;2022-09-17T17:16:56;4.00;;;0.40;;
74926;SDS011;63488;48.092;-1.640;2022-09-17T17:19:22;1.65;;;0.50;;
74926;SDS011;63488;48.092;-1.640;2022-09-17T17:21:49;2.38;;;0.40;;
74926;SDS011;63488;48.092;-1.640;2022-09-17T17:24:14;1.48;;;0.30;;
74926;SDS011;63488;48.092;-1.640;2022-09-17T17:26:40;1.45;;;0.35;;
74926;SDS011;63488;48.092;-1.640;2022-09-17T17:29:05;0.30;;;0.20;;
74926;SDS011;63488;48.092;-1.640;2022-09-17T17:31:32;0.60;;;0.25;;
74926;SDS011;63488;48.092;-1.640;2022-09-17T17:33:57;2.08;;;0.30;;
74926;SDS011;63488;48.092;-1.640;2022-09-17T17:36:22;1.95;;;0.38;;
74926;SDS011;63488;48.092;-1.640;2022-09-17T17:38:48;1.70;;;0.40;;
74926;SDS011;63488;48.092;-1.640;2022-09-17T17:41:13;1.05;;;0.35;;
74926;SDS011;63488;48.092;-1.640;2022-09-17T17:43:39;1.83;;;0.30;;
74926;SDS011;63488;48.092;-1.640;2022-09-17T17:46:06;3.50;;;0.63;;
74926;SDS011;63488;48.092;-1.640;2022-09-17T17:48:31;1.95;;;0.50;;
74926;SDS011;63488;48.092;-1.640;2022-09-17T17:51:07;3.33;;;0.63;;
74926;SDS011;63488;48.092;-1.640;2022-09-17T17:53:33;1.48;;;0.57;;